sensor_id;sensor_type;location;lat;lon;timestamp;pressure;altitude;pressure_sealevel;temperature;humidity
75414;BME280;64758;52.122;5.404;2024-03-02T00:01:15;99933.47;;;8.46;89.45
75414;BME280;64758;52.122;5.404;2024-03-02T00:03:42;99933.28;;;8.47;88.76
75414;BME280;64758;52.122;5.404;2024-03-02T00:06:09;99921.69;;;8.48;89.07
75414;BME280;64758;52.122;5.404;2024-03-02T00:08:36;99925.75;;;8.51;89.17
75414;BME280;64758;52.122;5.404;2024-03-02T00:11:03;99925.59;;;8.52;88.81
75414;BME280;64758;52.122;5.404;2024-03-02T00:13:32;99921.53;;;8.56;89.16
75414;BME280;64758;52.122;5.404;2024-03-02T00:16:00;99935.19;;;8.60;88.38
75414;BME280;64758;52.122;5.404;2024-03-02T00:18:32;99936.41;;;8.64;88.63
75414;BME280;64758;52.122;5.404;2024-03-02T00:21:00;99947.44;;;8.67;88.47
75414;BME280;64758;52.122;5.404;2024-03-02T00:23:30;99965.78;;;8.69;87.82
75414;BME280;64758;52.122;5.404;2024-03-02T00:25:58;99965.59;;;8.70;87.85
75414;BME280;64758;52.122;5.404;2024-03-02T00:28:36;99970.69;;;8.72;87.45
75414;BME280;64758;52.122;5.404;2024-03-02T00:31:10;99975.78;;;8.73;87.07
75414;BME280;64758;52.122;5.404;2024-03-02T00:33:42;99993.94;;;8.76;87.30
75414;BME280;64758;52.122;5.404;2024-03-02T00:36:11;99999.22;;;8.76;87.12
75414;BME280;64758;52.122;5.404;2024-03-02T00:39:05;100015.91;;;8.77;87.79
75414;BME280;64758;52.122;5.404;2024-03-02T00:41:34;100029.38;;;8.75;87.92
75414;BME280;64758;52.122;5.404;2024-03-02T00:44:06;100037.69;;;8.72;88.11
75414;BME280;64758;52.122;5.404;2024-03-02T00:49:05;100031.91;;;8.62;89.54
75414;BME280;64758;52.122;5.404;2024-03-02T00:51:37;100031.69;;;8.57;90.58
75414;BME280;64758;52.122;5.404;2024-03-02T00:54:07;100031.44;;;8.52;90.79
75414;BME280;64758;52.122;5.404;2024-03-02T00:56:34;100032.84;;;8.48;91.20
75414;BME280;64758;52.122;5.404;2024-03-02T00:59:02;100034.00;;;8.39;92.02
75414;BME280;64758;52.122;5.404;2024-03-02T01:01:28;100038.41;;;8.32;93.47
75414;BME280;64758;52.122;5.404;2024-03-02T01:03:55;100043.63;;;8.26;93.94
75414;BME280;64758;52.122;5.404;2024-03-02T01:06:21;100051.69;;;8.18;94.73
75414;BME280;64758;52.122;5.404;2024-03-02T01:08:51;100043.06;;;8.09;95.28
75414;BME280;64758;52.122;5.404;2024-03-02T01:11:19;100042.97;;;8.03;95.83
75414;BME280;64758;52.122;5.404;2024-03-02T01:13:49;100049.03;;;7.97;96.50
75414;BME280;64758;52.122;5.404;2024-03-02T01:16:16;100050.63;;;7.91;97.23
75414;BME280;64758;52.122;5.404;2024-03-02T01:18:42;100045.06;;;7.86;98.35
75414;BME280;64758;52.122;5.404;2024-03-02T01:21:10;100037.25;;;7.78;99.51
75414;BME280;64758;52.122;5.404;2024-03-02T01:23:36;100043.28;;;7.72;99.98
75414;BME280;64758;52.122;5.404;2024-03-02T01:26:03;100052.78;;;7.67;100.00
75414;BME280;64758;52.122;5.404;2024-03-02T01:28:30;100053.34;;;7.62;100.00
75414;BME280;64758;52.122;5.404;2024-03-02T01:30:57;100057.38;;;7.58;100.00
75414;BME280;64758;52.122;5.404;2024-03-02T01:33:23;100057.56;;;7.57;100.00
75414;BME280;64758;52.122;5.404;2024-03-02T01:35:50;100060.75;;;7.53;100.00
75414;BME280;64758;52.122;5.404;2024-03-02T01:38:16;100051.38;;;7.50;100.00
75414;BME280;64758;52.122;5.404;2024-03-02T01:40:44;100068.63;;;7.46;100.00
75414;BME280;64758;52.122;5.404;2024-03-02T01:43:14;100061.88;;;7.44;100.00
75414;BME280;64758;52.122;5.404;2024-03-02T01:45:41;100057.59;;;7.43;100.00
75414;BME280;64758;52.122;5.404;2024-03-02T01:48:08;100062.22;;;7.41;100.00
75414;BME280;64758;52.122;5.404;2024-03-02T01:50:34;100065.88;;;7.40;100.00
75414;BME280;64758;52.122;5.404;2024-03-02T01:53:02;100074.81;;;7.39;100.00
75414;BME280;64758;52.122;5.404;2024-03-02T01:55:31;100075.81;;;7.38;100.00
75414;BME280;64758;52.122;5.404;2024-03-02T01:57:59;100073.75;;;7.33;100.00
75414;BME280;64758;52.122;5.404;2024-03-02T02:00:26;100070.25;;;7.33;100.00
75414;BME280;64758;52.122;5.404;2024-03-02T02:02:54;100071.63;;;7.29;100.00
75414;BME280;64758;52.122;5.404;2024-03-02T02:05:21;100065.72;;;7.27;100.00
75414;BME280;64758;52.122;5.404;2024-03-02T02:07:47;100058.16;;;7.24;100.00
75414;BME280;64758;52.122;5.404;2024-03-02T02:10:14;100062.38;;;7.18;100.00
75414;BME280;64758;52.122;5.404;2024-03-02T02:12:41;100077.38;;;7.18;100.00
75414;BME280;64758;52.122;5.404;2024-03-02T02:15:27;100084.66;;;7.16;100.00
75414;BME280;64758;52.122;5.404;2024-03-02T02:17:55;100077.94;;;7.13;100.00
75414;BME280;64758;52.122;5.404;2024-03-02T02:20:23;100070.38;;;7.10;100.00
75414;BME280;64758;52.122;5.404;2024-03-02T02:23:03;100078.47;;;7.09;100.00
75414;BME280;64758;52.122;5.404;2024-03-02T02:25:30;100082.47;;;7.05;100.00
75414;BME280;64758;52.122;5.404;2024-03-02T02:27:57;100060.72;;;7.03;100.00
75414;BME280;64758;52.122;5.404;2024-03-02T02:30:29;100062.91;;;6.99;100.00
75414;BME280;64758;52.122;5.404;2024-03-02T02:32:57;100063.28;;;6.96;100.00
75414;BME280;64758;52.122;5.404;2024-03-02T02:35:24;100055.53;;;6.95;100.00
75414;BME280;64758;52.122;5.404;2024-03-02T02:37:53;100068.28;;;6.91;100.00
75414;BME280;64758;52.122;5.404;2024-03-02T02:40:21;100072.09;;;6.89;100.00
75414;BME280;64758;52.122;5.404;2024-03-02T02:42:47;100086.28;;;6.88;100.00
75414;BME280;64758;52.122;5.404;2024-03-02T02:45:14;100078.72;;;6.85;100.00
75414;BME280;64758;52.122;5.404;2024-03-02T02:47:42;100076.47;;;6.82;100.00
75414;BME280;64758;52.122;5.404;2024-03-02T02:50:10;100094.13;;;6.81;100.00
75414;BME280;64758;52.122;5.404;2024-03-02T02:52:39;100081.47;;;6.77;100.00
75414;BME280;64758;52.122;5.404;2024-03-02T02:55:08;100073.25;;;6.72;100.00
75414;BME280;64758;52.122;5.404;2024-03-02T02:57:35;100070.81;;;6.70;100.00
75414;BME280;64758;52.122;5.404;2024-03-02T03:00:22;100099.38;;;6.67;100.00
75414;BME280;64758;52.122;5.404;2024-03-02T03:02:49;100083.88;;;6.64;100.00
75414;BME280;64758;52.122;5.404;2024-03-02T03:05:17;100088.38;;;6.63;100.00
75414;BME280;64758;52.122;5.404;2024-03-02T03:07:44;100087.53;;;6.63;100.00
75414;BME280;64758;52.122;5.404;2024-03-02T03:10:12;100080.63;;;6.62;100.00
75414;BME280;64758;52.122;5.404;2024-03-02T03:12:40;100082.81;;;6.58;100.00
75414;BME280;64758;52.122;5.404;2024-03-02T03:15:09;100078.16;;;6.60;100.00
75414;BME280;64758;52.122;5.404;2024-03-02T03:17:36;100075.69;;;6.59;100.00
75414;BME280;64758;52.122;5.404;2024-03-02T03:20:04;100077.69;;;6.57;100.00
75414;BME280;64758;52.122;5.404;2024-03-02T03:22:32;100080.53;;;6.55;100.00
75414;BME280;64758;52.122;5.404;2024-03-02T03:24:59;100093.06;;;6.53;100.00
75414;BME280;64758;52.122;5.404;2024-03-02T03:27:26;100096.22;;;6.49;100.00
75414;BME280;64758;52.122;5.404;2024-03-02T03:29:52;100084.41;;;6.45;100.00
75414;BME280;64758;52.122;5.404;2024-03-02T03:32:20;100092.66;;;6.42;100.00
75414;BME280;64758;52.122;5.404;2024-03-02T03:34:47;100104.22;;;6.41;100.00
75414;BME280;64758;52.122;5.404;2024-03-02T03:37:15;100091.56;;;6.36;100.00
75414;BME280;64758;52.122;5.404;2024-03-02T03:39:41;100095.56;;;6.32;100.00
75414;BME280;64758;52.122;5.404;2024-03-02T03:42:08;100099.19;;;6.31;100.00
75414;BME280;64758;52.122;5.404;2024-03-02T03:44:35;100095.56;;;6.32;100.00
75414;BME280;64758;52.122;5.404;2024-03-02T03:47:01;100098.03;;;6.34;100.00
75414;BME280;64758;52.122;5.404;2024-03-02T03:49:29;100102.31;;;6.35;100.00
75414;BME280;64758;52.122;5.404;2024-03-02T03:51:55;100112.31;;;6.39;100.00
75414;BME280;64758;52.122;5.404;2024-03-02T03:54:22;100104.41;;;6.39;100.00
75414;BME280;64758;52.122;5.404;2024-03-02T03:56:49;100112.75;;;6.43;100.00
75414;BME280;64758;52.122;5.404;2024-03-02T03:59:15;100109.78;;;6.46;100.00
75414;BME280;64758;52.122;5.404;2024-03-02T04:01:42;100099.88;;;6.48;100.00
75414;BME280;64758;52.122;5.404;2024-03-02T04:04:08;100103.78;;;6.52;100.00
75414;BME280;64758;52.122;5.404;2024-03-02T04:06:35;100107.25;;;6.52;100.00
75414;BME280;64758;52.122;5.404;2024-03-02T04:09:02;100104.06;;;6.57;100.00
75414;BME280;64758;52.122;5.404;2024-03-02T04:11:30;100108.34;;;6.58;100.00
75414;BME280;64758;52.122;5.404;2024-03-02T04:13:57;100114.09;;;6.61;100.00
75414;BME280;64758;52.122;5.404;2024-03-02T04:16:24;100112.28;;;6.62;100.00
75414;BME280;64758;52.122;5.404;2024-03-02T04:18:51;100115.91;;;6.61;100.00
75414;BME280;64758;52.122;5.404;2024-03-02T04:21:17;100118.38;;;6.62;100.00
75414;BME280;64758;52.122;5.404;2024-03-02T04:23:44;100127.75;;;6.65;100.00
75414;BME280;64758;52.122;5.404;2024-03-02T04:26:10;100120.47;;;6.67;100.00
75414;BME280;64758;52.122;5.404;2024-03-02T04:28:37;100119.47;;;6.68;100.00
75414;BME280;64758;52.122;5.404;2024-03-02T04:31:03;100116.47;;;6.71;100.00
75414;BME280;64758;52.122;5.404;2024-03-02T04:33:30;100125.88;;;6.73;100.00
75414;BME280;64758;52.122;5.404;2024-03-02T04:35:57;100123.22;;;6.73;100.00
75414;BME280;64758;52.122;5.404;2024-03-02T04:38:24;100127.50;;;6.74;100.00
75414;BME280;64758;52.122;5.404;2024-03-02T04:40:50;100123.88;;;6.75;100.00
75414;BME280;64758;52.122;5.404;2024-03-02T04:43:17;100132.78;;;6.74;100.00
75414;BME280;64758;52.122;5.404;2024-03-02T04:45:45;100136.06;;;6.76;100.00
75414;BME280;64758;52.122;5.404;2024-03-02T04:48:11;100140.50;;;6.76;100.00
75414;BME280;64758;52.122;5.404;2024-03-02T04:50:38;100146.63;;;6.76;100.00
75414;BME280;64758;52.122;5.404;2024-03-02T04:53:05;100142.16;;;6.77;100.00
75414;BME280;64758;52.122;5.404;2024-03-02T04:55:31;100143.34;;;6.74;100.00
75414;BME280;64758;52.122;5.404;2024-03-02T04:58:00;100154.72;;;6.75;100.00
75414;BME280;64758;52.122;5.404;2024-03-02T05:00:27;100152.06;;;6.75;100.00
75414;BME280;64758;52.122;5.404;2024-03-02T05:02:53;100145.50;;;6.71;100.00
75414;BME280;64758;52.122;5.404;2024-03-02T05:05:20;100158.69;;;6.71;100.00
75414;BME280;64758;52.122;5.404;2024-03-02T05:07:46;100149.34;;;6.68;100.00
75414;BME280;64758;52.122;5.404;2024-03-02T05:10:13;100159.88;;;6.68;100.00
75414;BME280;64758;52.122;5.404;2024-03-02T05:12:41;100163.34;;;6.69;100.00
75414;BME280;64758;52.122;5.404;2024-03-02T05:15:12;100157.06;;;6.70;100.00
75414;BME280;64758;52.122;5.404;2024-03-02T05:17:40;100158.06;;;6.69;100.00
75414;BME280;64758;52.122;5.404;2024-03-02T05:20:07;100157.06;;;6.70;100.00
75414;BME280;64758;52.122;5.404;2024-03-02T05:22:35;100165.63;;;6.72;100.00
75414;BME280;64758;52.122;5.404;2024-03-02T05:25:03;100160.34;;;6.72;100.00
75414;BME280;64758;52.122;5.404;2024-03-02T05:27:30;100157.69;;;6.72;100.00
75414;BME280;64758;52.122;5.404;2024-03-02T05:30:00;100166.44;;;6.72;100.00
75414;BME280;64758;52.122;5.404;2024-03-02T05:32:27;100157.53;;;6.73;100.00
75414;BME280;64758;52.122;5.404;2024-03-02T05:34:54;100161.19;;;6.72;100.00
75414;BME280;64758;52.122;5.404;2024-03-02T05:37:21;100165.63;;;6.72;100.00
75414;BME280;64758;52.122;5.404;2024-03-02T05:39:48;100168.44;;;6.70;100.00
75414;BME280;64758;52.122;5.404;2024-03-02T05:42:14;100158.25;;;6.67;100.00
75414;BME280;64758;52.122;5.404;2024-03-02T05:44:43;100171.97;;;6.63;100.00
75414;BME280;64758;52.122;5.404;2024-03-02T05:47:09;100173.84;;;6.54;100.00
75414;BME280;64758;52.122;5.404;2024-03-02T05:49:36;100168.16;;;6.43;100.00
75414;BME280;64758;52.122;5.404;2024-03-02T05:52:03;100168.88;;;6.37;100.00
75414;BME280;64758;52.122;5.404;2024-03-02T05:54:30;100170.22;;;6.33;100.00
75414;BME280;64758;52.122;5.404;2024-03-02T05:56:56;100170.22;;;6.33;100.00
75414;BME280;64758;52.122;5.404;2024-03-02T05:59:23;100168.88;;;6.37;100.00
75414;BME280;64758;52.122;5.404;2024-03-02T06:01:49;100180.44;;;6.36;100.00
75414;BME280;64758;52.122;5.404;2024-03-02T06:04:21;100171.69;;;6.35;100.00
75414;BME280;64758;52.122;5.404;2024-03-02T06:06:47;100178.41;;;6.38;100.00
75414;BME280;64758;52.122;5.404;2024-03-02T06:09:16;100182.53;;;6.40;100.00
75414;BME280;64758;52.122;5.404;2024-03-02T06:11:42;100184.16;;;6.41;100.00
75414;BME280;64758;52.122;5.404;2024-03-02T06:14:09;100187.63;;;6.42;100.00
75414;BME280;64758;52.122;5.404;2024-03-02T06:16:35;100190.44;;;6.40;100.00
75414;BME280;64758;52.122;5.404;2024-03-02T06:19:02;100188.81;;;6.39;100.00
75414;BME280;64758;52.122;5.404;2024-03-02T06:21:31;100202.78;;;6.40;100.00
75414;BME280;64758;52.122;5.404;2024-03-02T06:23:57;100198.34;;;6.40;100.00
75414;BME280;64758;52.122;5.404;2024-03-02T06:26:24;100208.72;;;6.42;100.00
75414;BME280;64758;52.122;5.404;2024-03-02T06:28:51;100199.16;;;6.41;100.00
75414;BME280;64758;52.122;5.404;2024-03-02T06:31:18;100212.19;;;6.42;100.00
75414;BME280;64758;52.122;5.404;2024-03-02T06:33:45;100208.19;;;6.46;100.00
75414;BME280;64758;52.122;5.404;2024-03-02T06:36:12;100215.94;;;6.48;100.00
75414;BME280;64758;52.122;5.404;2024-03-02T06:38:41;100228.13;;;6.49;100.00
75414;BME280;64758;52.122;5.404;2024-03-02T06:41:09;100216.56;;;6.50;100.00
75414;BME280;64758;52.122;5.404;2024-03-02T06:43:35;100221.84;;;6.50;100.00
75414;BME280;64758;52.122;5.404;2024-03-02T06:46:02;100225.97;;;6.52;100.00
75414;BME280;64758;52.122;5.404;2024-03-02T06:48:29;100222.16;;;6.55;100.00
75414;BME280;64758;52.122;5.404;2024-03-02T06:50:56;100213.22;;;6.56;100.00
75414;BME280;64758;52.122;5.404;2024-03-02T06:53:24;100212.88;;;6.59;100.00
75414;BME280;64758;52.122;5.404;2024-03-02T06:55:51;100212.72;;;6.60;100.00
75414;BME280;64758;52.122;5.404;2024-03-02T06:58:18;100219.81;;;6.60;100.00
75414;BME280;64758;52.122;5.404;2024-03-02T07:00:44;100217.16;;;6.60;100.00
75414;BME280;64758;52.122;5.404;2024-03-02T07:03:11;100217.81;;;6.62;100.00
75414;BME280;64758;52.122;5.404;2024-03-02T07:05:39;100219.81;;;6.60;100.00
75414;BME280;64758;52.122;5.404;2024-03-02T07:08:05;100205.63;;;6.61;100.00
75414;BME280;64758;52.122;5.404;2024-03-02T07:10:32;100209.25;;;6.60;100.00
75414;BME280;64758;52.122;5.404;2024-03-02T07:12:59;100223.09;;;6.62;100.00
75414;BME280;64758;52.122;5.404;2024-03-02T07:15:26;100219.63;;;6.61;100.00
75414;BME280;64758;52.122;5.404;2024-03-02T07:18:11;100221.09;;;6.64;100.00
75414;BME280;64758;52.122;5.404;2024-03-02T07:20:37;100220.75;;;6.67;100.00
75414;BME280;64758;52.122;5.404;2024-03-02T07:23:05;100220.22;;;6.71;100.00
75414;BME280;64758;52.122;5.404;2024-03-02T07:25:32;100223.31;;;6.75;100.00
75414;BME280;64758;52.122;5.404;2024-03-02T07:28:02;100231.06;;;6.76;100.00
75414;BME280;64758;52.122;5.404;2024-03-02T07:30:29;100224.59;;;6.79;100.00
75414;BME280;64758;52.122;5.404;2024-03-02T07:32:59;100230.00;;;6.85;100.00
75414;BME280;64758;52.122;5.404;2024-03-02T07:35:26;100240.22;;;6.88;100.00
75414;BME280;64758;52.122;5.404;2024-03-02T07:37:58;100234.59;;;6.91;100.00
75414;BME280;64758;52.122;5.404;2024-03-02T07:40:25;100239.66;;;6.93;100.00
75414;BME280;64758;52.122;5.404;2024-03-02T07:42:51;100248.22;;;6.95;100.00
75414;BME280;64758;52.122;5.404;2024-03-02T07:45:18;100241.78;;;6.97;100.00
75414;BME280;64758;52.122;5.404;2024-03-02T07:47:46;100247.72;;;6.99;100.00
75414;BME280;64758;52.122;5.404;2024-03-02T07:50:12;100243.44;;;6.98;100.00
75414;BME280;64758;52.122;5.404;2024-03-02T07:52:39;100254.00;;;6.98;100.00
75414;BME280;64758;52.122;5.404;2024-03-02T07:55:05;100239.31;;;6.96;100.00
75414;BME280;64758;52.122;5.404;2024-03-02T07:57:32;100244.78;;;6.94;100.00
75414;BME280;64758;52.122;5.404;2024-03-02T07:59:59;100244.94;;;6.93;100.00
75414;BME280;64758;52.122;5.404;2024-03-02T08:02:26;100245.94;;;6.92;100.00
75414;BME280;64758;52.122;5.404;2024-03-02T08:04:52;100257.34;;;6.92;100.00
75414;BME280;64758;52.122;5.404;2024-03-02T08:07:19;100260.16;;;6.91;100.00
75414;BME280;64758;52.122;5.404;2024-03-02T08:09:45;100263.78;;;6.90;100.00
75414;BME280;64758;52.122;5.404;2024-03-02T08:12:12;100262.13;;;6.89;100.00
75414;BME280;64758;52.122;5.404;2024-03-02T08:14:38;100263.13;;;6.88;100.00
75414;BME280;64758;52.122;5.404;2024-03-02T08:17:05;100267.41;;;6.89;100.00
75414;BME280;64758;52.122;5.404;2024-03-02T08:19:36;100260.50;;;6.88;100.00
75414;BME280;64758;52.122;5.404;2024-03-02T08:22:03;100268.41;;;6.88;100.00
75414;BME280;64758;52.122;5.404;2024-03-02T08:24:30;100270.69;;;6.91;100.00
75414;BME280;64758;52.122;5.404;2024-03-02T08:26:58;100270.34;;;6.94;100.00
75414;BME280;64758;52.122;5.404;2024-03-02T08:29:25;100267.19;;;6.98;100.00
75414;BME280;64758;52.122;5.404;2024-03-02T08:31:52;100266.94;;;7.08;100.00
75414;BME280;64758;52.122;5.404;2024-03-02T08:34:18;100271.16;;;7.17;100.00
75414;BME280;64758;52.122;5.404;2024-03-02T08:36:46;100269.28;;;7.25;100.00
75414;BME280;64758;52.122;5.404;2024-03-02T08:39:13;100274.28;;;7.35;100.00
75414;BME280;64758;52.122;5.404;2024-03-02T08:41:43;100264.66;;;7.42;99.70
75414;BME280;64758;52.122;5.404;2024-03-02T08:44:10;100275.13;;;7.50;99.68
75414;BME280;64758;52.122;5.404;2024-03-02T08:46:37;100272.63;;;7.56;98.75
75414;BME280;64758;52.122;5.404;2024-03-02T08:49:04;100270.50;;;7.66;98.86
75414;BME280;64758;52.122;5.404;2024-03-02T08:51:30;100259.84;;;7.74;98.80
75414;BME280;64758;52.122;5.404;2024-03-02T08:53:59;100263.22;;;7.82;98.33
75414;BME280;64758;52.122;5.404;2024-03-02T08:56:25;100269.22;;;7.91;98.33
75414;BME280;64758;52.122;5.404;2024-03-02T08:58:52;100272.72;;;7.91;96.19
75414;BME280;64758;52.122;5.404;2024-03-02T09:01:19;100265.84;;;7.97;96.86
75414;BME280;64758;52.122;5.404;2024-03-02T09:03:46;100270.88;;;8.06;95.94
75414;BME280;64758;52.122;5.404;2024-03-02T09:06:13;100269.78;;;8.15;96.09
75414;BME280;64758;52.122;5.404;2024-03-02T09:08:40;100263.84;;;8.28;95.24
75414;BME280;64758;52.122;5.404;2024-03-02T09:11:07;100268.31;;;8.27;93.01
75414;BME280;64758;52.122;5.404;2024-03-02T09:13:33;100260.19;;;8.29;93.60
75414;BME280;64758;52.122;5.404;2024-03-02T09:16:00;100269.22;;;8.34;92.80
75414;BME280;64758;52.122;5.404;2024-03-02T09:18:27;100264.63;;;8.43;93.22
75414;BME280;64758;52.122;5.404;2024-03-02T09:20:53;100273.91;;;8.53;91.78
75414;BME280;64758;52.122;5.404;2024-03-02T09:23:20;100272.44;;;8.65;90.55
75414;BME280;64758;52.122;5.404;2024-03-02T09:25:47;100264.16;;;8.75;89.88
75414;BME280;64758;52.122;5.404;2024-03-02T09:28:15;100259.97;;;8.80;88.58
75414;BME280;64758;52.122;5.404;2024-03-02T09:30:42;100260.38;;;8.83;87.77
75414;BME280;64758;52.122;5.404;2024-03-02T09:33:08;100261.47;;;8.89;88.09
75414;BME280;64758;52.122;5.404;2024-03-02T09:35:37;100262.56;;;9.01;87.20
75414;BME280;64758;52.122;5.404;2024-03-02T09:38:04;100265.94;;;9.09;86.06
75414;BME280;64758;52.122;5.404;2024-03-02T09:40:31;100263.69;;;9.13;85.12
75414;BME280;64758;52.122;5.404;2024-03-02T09:42:58;100272.91;;;9.17;83.84
75414;BME280;64758;52.122;5.404;2024-03-02T09:45:26;100276.38;;;9.17;83.93
75414;BME280;64758;52.122;5.404;2024-03-02T09:47:53;100273.41;;;9.27;84.79
75414;BME280;64758;52.122;5.404;2024-03-02T09:50:19;100283.72;;;9.43;83.18
75414;BME280;64758;52.122;5.404;2024-03-02T09:52:49;100267.28;;;9.54;82.09
75414;BME280;64758;52.122;5.404;2024-03-02T09:55:17;100272.03;;;9.58;80.37
75414;BME280;64758;52.122;5.404;2024-03-02T09:57:45;100273.66;;;9.59;79.48
75414;BME280;64758;52.122;5.404;2024-03-02T10:00:13;100271.03;;;9.66;80.55
75414;BME280;64758;52.122;5.404;2024-03-02T10:02:42;100287.00;;;9.72;79.69
75414;BME280;64758;52.122;5.404;2024-03-02T10:05:09;100284.78;;;9.76;79.29
75414;BME280;64758;52.122;5.404;2024-03-02T10:07:35;100278.47;;;9.77;79.44
75414;BME280;64758;52.122;5.404;2024-03-02T10:10:15;100277.44;;;9.78;78.44
75414;BME280;64758;52.122;5.404;2024-03-02T10:12:42;100278.31;;;9.85;78.33
75414;BME280;64758;52.122;5.404;2024-03-02T10:15:09;100274.72;;;9.99;77.02
75414;BME280;64758;52.122;5.404;2024-03-02T10:17:36;100271.44;;;9.97;77.41
75414;BME280;64758;52.122;5.404;2024-03-02T10:20:22;100282.38;;;10.14;79.82
75414;BME280;64758;52.122;5.404;2024-03-02T10:22:52;100267.53;;;10.26;78.15
75414;BME280;64758;52.122;5.404;2024-03-02T10:25:31;100277.38;;;10.32;76.86
75414;BME280;64758;52.122;5.404;2024-03-02T10:28:16;100270.81;;;10.28;75.83
75414;BME280;64758;52.122;5.404;2024-03-02T10:30:43;100267.75;;;10.31;75.49
75414;BME280;64758;52.122;5.404;2024-03-02T10:33:09;100268.81;;;10.43;76.34
75414;BME280;64758;52.122;5.404;2024-03-02T10:35:38;100261.69;;;10.50;75.81
75414;BME280;64758;52.122;5.404;2024-03-02T10:38:05;100263.75;;;10.55;75.64
75414;BME280;64758;52.122;5.404;2024-03-02T10:40:32;100267.63;;;10.52;75.18
75414;BME280;64758;52.122;5.404;2024-03-02T10:43:01;100264.75;;;10.54;74.64
75414;BME280;64758;52.122;5.404;2024-03-02T10:45:31;100257.44;;;10.62;74.73
75414;BME280;64758;52.122;5.404;2024-03-02T10:47:58;100244.38;;;10.67;73.82
75414;BME280;64758;52.122;5.404;2024-03-02T10:50:26;100252.97;;;10.76;73.34
75414;BME280;64758;52.122;5.404;2024-03-02T10:52:52;100240.13;;;10.86;74.03
75414;BME280;64758;52.122;5.404;2024-03-02T10:55:19;100235.41;;;10.88;72.11
75414;BME280;64758;52.122;5.404;2024-03-02T10:57:51;100228.47;;;10.87;72.28
75414;BME280;64758;52.122;5.404;2024-03-02T11:00:19;100228.25;;;10.82;70.57
75414;BME280;64758;52.122;5.404;2024-03-02T11:02:55;100231.75;;;10.82;71.48
75414;BME280;64758;52.122;5.404;2024-03-02T11:05:31;100231.75;;;10.82;72.35
75414;BME280;64758;52.122;5.404;2024-03-02T11:08:08;100233.78;;;11.00;72.86
75414;BME280;64758;52.122;5.404;2024-03-02T11:10:37;100232.78;;;11.14;72.76
75414;BME280;64758;52.122;5.404;2024-03-02T11:13:12;100229.72;;;11.23;71.77
75414;BME280;64758;52.122;5.404;2024-03-02T11:15:43;100234.84;;;11.31;70.90
75414;BME280;64758;52.122;5.404;2024-03-02T11:18:11;100226.03;;;11.37;70.73
75414;BME280;64758;52.122;5.404;2024-03-02T11:20:39;100236.25;;;11.40;70.01
75414;BME280;64758;52.122;5.404;2024-03-02T11:23:08;100234.63;;;11.39;68.73
75414;BME280;64758;52.122;5.404;2024-03-02T11:25:35;100242.81;;;11.31;68.38
75414;BME280;64758;52.122;5.404;2024-03-02T11:28:03;100245.28;;;11.26;70.03
75414;BME280;64758;52.122;5.404;2024-03-02T11:33:06;100233.34;;;11.48;68.07
75414;BME280;64758;52.122;5.404;2024-03-02T11:35:41;100238.09;;;11.65;66.57
75414;BME280;64758;52.122;5.404;2024-03-02T11:38:14;100227.22;;;11.67;65.46
75414;BME280;64758;52.122;5.404;2024-03-02T11:40:41;100225.16;;;11.69;66.31
75414;BME280;64758;52.122;5.404;2024-03-02T11:43:08;100227.41;;;11.72;65.42
75414;BME280;64758;52.122;5.404;2024-03-02T11:45:36;100221.06;;;11.79;65.72
75414;BME280;64758;52.122;5.404;2024-03-02T11:48:08;100222.84;;;11.92;65.51
75414;BME280;64758;52.122;5.404;2024-03-02T11:50:51;100220.44;;;11.90;65.85
75414;BME280;64758;52.122;5.404;2024-03-02T11:53:19;100202.97;;;12.01;65.87
75414;BME280;64758;52.122;5.404;2024-03-02T11:55:46;100213.59;;;12.07;64.02
75414;BME280;64758;52.122;5.404;2024-03-02T11:58:14;100204.19;;;12.05;62.88
75414;BME280;64758;52.122;5.404;2024-03-02T12:00:41;100209.50;;;12.05;62.40
75414;BME280;64758;52.122;5.404;2024-03-02T12:03:09;100202.53;;;12.04;63.06
75414;BME280;64758;52.122;5.404;2024-03-02T12:05:38;100199.47;;;12.07;63.46
75414;BME280;64758;52.122;5.404;2024-03-02T12:08:06;100208.03;;;12.15;62.75
75414;BME280;64758;52.122;5.404;2024-03-02T12:10:36;100198.38;;;12.21;63.03
75414;BME280;64758;52.122;5.404;2024-03-02T12:13:07;100177.84;;;12.28;63.57
75414;BME280;64758;52.122;5.404;2024-03-02T12:15:35;100190.47;;;12.45;62.74
75414;BME280;64758;52.122;5.404;2024-03-02T12:18:06;100183.47;;;12.51;62.23
75414;BME280;64758;52.122;5.404;2024-03-02T12:20:33;100186.88;;;12.33;60.95
75414;BME280;64758;52.122;5.404;2024-03-02T12:23:02;100179.84;;;12.39;61.93
75414;BME280;64758;52.122;5.404;2024-03-02T12:25:31;100182.09;;;12.42;61.39
75414;BME280;64758;52.122;5.404;2024-03-02T12:28:00;100179.06;;;12.32;61.29
75414;BME280;64758;52.122;5.404;2024-03-02T12:30:30;100174.09;;;12.42;61.22
75414;BME280;64758;52.122;5.404;2024-03-02T12:32:57;100166.28;;;12.47;60.55
75414;BME280;64758;52.122;5.404;2024-03-02T12:35:24;100170.16;;;12.51;60.55
75414;BME280;64758;52.122;5.404;2024-03-02T12:37:53;100167.47;;;12.57;60.21
75414;BME280;64758;52.122;5.404;2024-03-02T12:40:20;100172.78;;;12.57;59.65
75414;BME280;64758;52.122;5.404;2024-03-02T12:42:50;100170.28;;;12.62;61.02
75414;BME280;64758;52.122;5.404;2024-03-02T12:45:17;100161.13;;;12.76;61.23
75414;BME280;64758;52.122;5.404;2024-03-02T12:47:52;100149.56;;;12.88;61.63
75414;BME280;64758;52.122;5.404;2024-03-02T12:50:19;100149.19;;;12.91;61.04
75414;BME280;64758;52.122;5.404;2024-03-02T12:52:52;100147.09;;;12.93;60.68
75414;BME280;64758;52.122;5.404;2024-03-02T12:55:21;100145.41;;;12.99;62.58
75414;BME280;64758;52.122;5.404;2024-03-02T12:57:50;100140.50;;;12.96;61.75
75414;BME280;64758;52.122;5.404;2024-03-02T13:00:18;100127.22;;;12.89;61.51
75414;BME280;64758;52.122;5.404;2024-03-02T13:02:46;100140.75;;;12.88;62.37